sensor_id;sensor_type;location;lat;lon;timestamp;P1;durP1;ratioP1;P2;durP2;ratioP2
10399;SDS011;10031;51.180;17.168;2022-12-29T00:01:55;8.33;;;4.07;;
10399;SDS011;10031;51.180;17.168;2022-12-29T00:04:22;9.80;;;4.90;;
10399;SDS011;10031;51.180;17.168;2022-12-29T00:06:49;9.07;;;4.63;;
10399;SDS011;10031;51.180;17.168;2022-12-29T00:09:16;7.97;;;4.97;;
10399;SDS011;10031;51.180;17.168;2022-12-29T00:11:42;9.00;;;4.93;;
10399;SDS011;10031;51.180;17.168;2022-12-29T00:14:09;7.17;;;4.40;;
10399;SDS011;10031;51.180;17.168;2022-12-29T00:16:53;7.47;;;4.23;;
10399;SDS011;10031;51.180;17.168;2022-12-29T00:19:20;7.27;;;3.97;;
10399;SDS011;10031;51.180;17.168;2022-12-29T00:22:05;7.73;;;4.23;;
10399;SDS011;10031;51.180;17.168;2022-12-29T00:24:49;11.50;;;5.23;;
10399;SDS011;10031;51.180;17.168;2022-12-29T00:27:18;7.57;;;5.23;;
10399;SDS011;10031;51.180;17.168;2022-12-29T00:30:07;8.47;;;3.77;;
10399;SDS011;10031;51.180;17.168;2022-12-29T00:32:53;8.00;;;4.03;;
10399;SDS011;10031;51.180;17.168;2022-12-29T00:35:43;7.97;;;4.07;;
10399;SDS011;10031;51.180;17.168;2022-12-29T00:38:11;7.93;;;4.80;;
10399;SDS011;10031;51.180;17.168;2022-12-29T00:40:56;5.40;;;3.80;;
10399;SDS011;10031;51.180;17.168;2022-12-29T00:43:41;7.50;;;4.47;;
10399;SDS011;10031;51.180;17.168;2022-12-29T00:46:26;5.13;;;3.63;;
10399;SDS011;10031;51.180;17.168;2022-12-29T00:48:52;7.67;;;4.27;;
10399;SDS011;10031;51.180;17.168;2022-12-29T00:51:37;6.57;;;3.73;;
10399;SDS011;10031;51.180;17.168;2022-12-29T00:54:03;9.23;;;3.77;;
10399;SDS011;10031;51.180;17.168;2022-12-29T00:56:29;7.23;;;3.80;;
10399;SDS011;10031;51.180;17.168;2022-12-29T00:58:55;6.27;;;3.90;;
10399;SDS011;10031;51.180;17.168;2022-12-29T01:01:29;6.73;;;3.27;;
10399;SDS011;10031;51.180;17.168;2022-12-29T01:03:55;5.97;;;3.40;;
10399;SDS011;10031;51.180;17.168;2022-12-29T01:06:21;6.97;;;3.40;;
10399;SDS011;10031;51.180;17.168;2022-12-29T01:08:48;5.87;;;3.40;;
10399;SDS011;10031;51.180;17.168;2022-12-29T01:11:32;4.33;;;3.37;;
10399;SDS011;10031;51.180;17.168;2022-12-29T01:13:58;5.23;;;3.23;;
10399;SDS011;10031;51.180;17.168;2022-12-29T01:16:25;7.27;;;3.50;;
10399;SDS011;10031;51.180;17.168;2022-12-29T01:18:51;3.77;;;3.13;;
10399;SDS011;10031;51.180;17.168;2022-12-29T01:21:17;7.93;;;4.13;;
10399;SDS011;10031;51.180;17.168;2022-12-29T01:23:43;5.27;;;3.10;;
10399;SDS011;10031;51.180;17.168;2022-12-29T01:26:12;7.63;;;3.40;;
10399;SDS011;10031;51.180;17.168;2022-12-29T01:28:40;9.83;;;4.10;;
10399;SDS011;10031;51.180;17.168;2022-12-29T01:31:07;6.17;;;3.33;;
10399;SDS011;10031;51.180;17.168;2022-12-29T01:33:33;7.33;;;4.00;;
10399;SDS011;10031;51.180;17.168;2022-12-29T01:36:00;6.47;;;3.80;;
10399;SDS011;10031;51.180;17.168;2022-12-29T01:38:30;8.03;;;3.90;;
10399;SDS011;10031;51.180;17.168;2022-12-29T01:40:56;6.20;;;3.40;;
10399;SDS011;10031;51.180;17.168;2022-12-29T01:43:37;11.03;;;4.53;;
10399;SDS011;10031;51.180;17.168;2022-12-29T01:46:04;5.83;;;3.57;;
10399;SDS011;10031;51.180;17.168;2022-12-29T01:48:44;4.73;;;3.23;;
10399;SDS011;10031;51.180;17.168;2022-12-29T01:51:11;8.20;;;4.37;;
10399;SDS011;10031;51.180;17.168;2022-12-29T01:53:38;6.80;;;3.97;;
10399;SDS011;10031;51.180;17.168;2022-12-29T01:56:04;5.13;;;4.10;;
10399;SDS011;10031;51.180;17.168;2022-12-29T01:58:37;5.27;;;3.67;;
10399;SDS011;10031;51.180;17.168;2022-12-29T02:01:05;6.13;;;4.03;;
10399;SDS011;10031;51.180;17.168;2022-12-29T02:03:31;6.67;;;3.90;;
10399;SDS011;10031;51.180;17.168;2022-12-29T02:06:00;7.37;;;3.90;;
10399;SDS011;10031;51.180;17.168;2022-12-29T02:08:32;7.80;;;4.30;;
10399;SDS011;10031;51.180;17.168;2022-12-29T02:10:59;11.53;;;4.80;;
10399;SDS011;10031;51.180;17.168;2022-12-29T02:13:26;7.57;;;4.50;;
10399;SDS011;10031;51.180;17.168;2022-12-29T02:24:33;5.80;;;3.83;;
10399;SDS011;10031;51.180;17.168;2022-12-29T02:32:55;5.17;;;3.70;;
10399;SDS011;10031;51.180;17.168;2022-12-29T02:41:02;6.43;;;3.33;;
10399;SDS011;10031;51.180;17.168;2022-12-29T02:46:26;4.87;;;3.20;;
10399;SDS011;10031;51.180;17.168;2022-12-29T02:49:06;4.87;;;2.63;;
10399;SDS011;10031;51.180;17.168;2022-12-29T02:51:42;7.47;;;3.17;;
10399;SDS011;10031;51.180;17.168;2022-12-29T02:54:22;3.77;;;2.70;;
10399;SDS011;10031;51.180;17.168;2022-12-29T02:59:41;2.97;;;2.63;;
10399;SDS011;10031;51.180;17.168;2022-12-29T03:13:28;4.17;;;3.00;;
10399;SDS011;10031;51.180;17.168;2022-12-29T03:16:21;4.10;;;2.67;;
10399;SDS011;10031;51.180;17.168;2022-12-29T03:24:27;3.87;;;2.80;;
10399;SDS011;10031;51.180;17.168;2022-12-29T03:26:56;4.83;;;2.80;;
10399;SDS011;10031;51.180;17.168;2022-12-29T03:29:29;3.17;;;2.50;;
10399;SDS011;10031;51.180;17.168;2022-12-29T03:31:58;3.50;;;3.00;;
10399;SDS011;10031;51.180;17.168;2022-12-29T03:34:26;4.17;;;3.10;;
10399;SDS011;10031;51.180;17.168;2022-12-29T03:37:04;5.03;;;3.23;;
10399;SDS011;10031;51.180;17.168;2022-12-29T03:39:35;3.83;;;2.97;;
10399;SDS011;10031;51.180;17.168;2022-12-29T03:44:38;4.50;;;3.23;;
10399;SDS011;10031;51.180;17.168;2022-12-29T03:47:07;8.97;;;3.20;;
10399;SDS011;10031;51.180;17.168;2022-12-29T03:49:33;3.30;;;2.70;;
10399;SDS011;10031;51.180;17.168;2022-12-29T03:51:59;4.00;;;2.60;;
10399;SDS011;10031;51.180;17.168;2022-12-29T03:54:25;5.17;;;3.17;;
10399;SDS011;10031;51.180;17.168;2022-12-29T03:56:51;6.07;;;3.23;;
10399;SDS011;10031;51.180;17.168;2022-12-29T03:59:17;3.87;;;2.90;;
10399;SDS011;10031;51.180;17.168;2022-12-29T04:01:43;3.70;;;2.87;;
10399;SDS011;10031;51.180;17.168;2022-12-29T04:04:09;5.07;;;3.20;;
10399;SDS011;10031;51.180;17.168;2022-12-29T04:06:35;5.00;;;3.50;;
10399;SDS011;10031;51.180;17.168;2022-12-29T04:09:01;7.27;;;3.77;;
10399;SDS011;10031;51.180;17.168;2022-12-29T04:11:27;7.17;;;3.40;;
10399;SDS011;10031;51.180;17.168;2022-12-29T04:13:53;4.57;;;3.00;;
10399;SDS011;10031;51.180;17.168;2022-12-29T04:16:19;4.17;;;3.10;;
10399;SDS011;10031;51.180;17.168;2022-12-29T04:18:45;4.27;;;2.83;;
10399;SDS011;10031;51.180;17.168;2022-12-29T04:21:11;3.47;;;2.63;;
10399;SDS011;10031;51.180;17.168;2022-12-29T04:23:38;5.53;;;3.30;;
10399;SDS011;10031;51.180;17.168;2022-12-29T04:26:04;3.30;;;2.63;;
10399;SDS011;10031;51.180;17.168;2022-12-29T04:28:34;6.70;;;3.30;;
10399;SDS011;10031;51.180;17.168;2022-12-29T04:31:00;4.17;;;2.90;;
10399;SDS011;10031;51.180;17.168;2022-12-29T04:33:26;4.17;;;2.70;;
10399;SDS011;10031;51.180;17.168;2022-12-29T04:35:52;6.20;;;3.10;;
10399;SDS011;10031;51.180;17.168;2022-12-29T04:38:19;6.47;;;3.17;;
10399;SDS011;10031;51.180;17.168;2022-12-29T04:40:46;4.63;;;3.07;;
10399;SDS011;10031;51.180;17.168;2022-12-29T04:43:12;4.87;;;3.07;;
10399;SDS011;10031;51.180;17.168;2022-12-29T04:45:39;5.23;;;2.97;;
10399;SDS011;10031;51.180;17.168;2022-12-29T04:48:08;5.03;;;2.87;;
10399;SDS011;10031;51.180;17.168;2022-12-29T04:50:34;3.93;;;2.87;;
10399;SDS011;10031;51.180;17.168;2022-12-29T04:53:00;2.93;;;2.60;;
10399;SDS011;10031;51.180;17.168;2022-12-29T04:55:26;3.80;;;2.67;;
10399;SDS011;10031;51.180;17.168;2022-12-29T04:57:53;4.17;;;2.93;;
10399;SDS011;10031;51.180;17.168;2022-12-29T05:00:19;3.63;;;2.87;;
10399;SDS011;10031;51.180;17.168;2022-12-29T05:02:45;6.80;;;3.77;;
10399;SDS011;10031;51.180;17.168;2022-12-29T05:05:12;3.50;;;2.83;;
10399;SDS011;10031;51.180;17.168;2022-12-29T05:07:38;4.43;;;3.13;;
10399;SDS011;10031;51.180;17.168;2022-12-29T05:10:05;3.97;;;3.33;;
10399;SDS011;10031;51.180;17.168;2022-12-29T05:12:32;3.73;;;3.23;;
10399;SDS011;10031;51.180;17.168;2022-12-29T05:14:59;7.17;;;2.97;;
10399;SDS011;10031;51.180;17.168;2022-12-29T05:17:25;5.73;;;3.03;;
10399;SDS011;10031;51.180;17.168;2022-12-29T05:19:51;5.10;;;3.30;;
10399;SDS011;10031;51.180;17.168;2022-12-29T05:22:17;4.37;;;3.20;;
10399;SDS011;10031;51.180;17.168;2022-12-29T05:24:43;4.13;;;3.03;;
10399;SDS011;10031;51.180;17.168;2022-12-29T05:27:09;4.40;;;2.90;;
10399;SDS011;10031;51.180;17.168;2022-12-29T05:29:35;6.00;;;3.00;;
10399;SDS011;10031;51.180;17.168;2022-12-29T05:32:01;4.17;;;3.40;;
10399;SDS011;10031;51.180;17.168;2022-12-29T05:34:28;5.63;;;3.17;;
10399;SDS011;10031;51.180;17.168;2022-12-29T05:36:54;5.83;;;3.17;;
10399;SDS011;10031;51.180;17.168;2022-12-29T05:39:20;6.07;;;3.17;;
10399;SDS011;10031;51.180;17.168;2022-12-29T05:41:46;5.37;;;3.00;;
10399;SDS011;10031;51.180;17.168;2022-12-29T05:44:12;5.47;;;3.10;;
10399;SDS011;10031;51.180;17.168;2022-12-29T05:46:39;4.73;;;3.17;;
10399;SDS011;10031;51.180;17.168;2022-12-29T05:49:05;4.33;;;3.13;;
10399;SDS011;10031;51.180;17.168;2022-12-29T05:51:32;3.40;;;2.53;;
10399;SDS011;10031;51.180;17.168;2022-12-29T05:53:58;4.17;;;2.67;;
10399;SDS011;10031;51.180;17.168;2022-12-29T05:59:13;5.40;;;3.30;;
10399;SDS011;10031;51.180;17.168;2022-12-29T06:01:39;4.53;;;3.07;;
10399;SDS011;10031;51.180;17.168;2022-12-29T06:04:05;4.23;;;2.97;;
10399;SDS011;10031;51.180;17.168;2022-12-29T06:06:31;5.67;;;3.53;;
10399;SDS011;10031;51.180;17.168;2022-12-29T06:08:57;7.47;;;3.67;;
10399;SDS011;10031;51.180;17.168;2022-12-29T06:11:23;8.53;;;3.60;;
10399;SDS011;10031;51.180;17.168;2022-12-29T06:13:49;6.10;;;3.70;;
10399;SDS011;10031;51.180;17.168;2022-12-29T06:16:15;7.83;;;4.03;;
10399;SDS011;10031;51.180;17.168;2022-12-29T06:18:42;8.63;;;4.80;;
10399;SDS011;10031;51.180;17.168;2022-12-29T06:21:08;7.73;;;4.73;;
10399;SDS011;10031;51.180;17.168;2022-12-29T06:23:34;5.50;;;3.80;;
10399;SDS011;10031;51.180;17.168;2022-12-29T06:26:00;5.63;;;4.10;;
10399;SDS011;10031;51.180;17.168;2022-12-29T06:28:26;5.90;;;4.03;;
10399;SDS011;10031;51.180;17.168;2022-12-29T06:30:53;6.33;;;3.90;;
10399;SDS011;10031;51.180;17.168;2022-12-29T06:33:19;6.30;;;3.67;;
10399;SDS011;10031;51.180;17.168;2022-12-29T06:35:45;8.57;;;4.40;;
10399;SDS011;10031;51.180;17.168;2022-12-29T06:38:12;9.33;;;5.00;;
10399;SDS011;10031;51.180;17.168;2022-12-29T06:40:38;9.40;;;4.50;;
10399;SDS011;10031;51.180;17.168;2022-12-29T06:43:06;5.60;;;3.63;;
10399;SDS011;10031;51.180;17.168;2022-12-29T06:45:32;5.97;;;3.90;;
10399;SDS011;10031;51.180;17.168;2022-12-29T06:47:58;6.60;;;3.83;;
10399;SDS011;10031;51.180;17.168;2022-12-29T06:50:24;6.40;;;3.93;;
10399;SDS011;10031;51.180;17.168;2022-12-29T06:52:50;9.13;;;4.00;;
10399;SDS011;10031;51.180;17.168;2022-12-29T06:55:16;6.60;;;3.90;;
10399;SDS011;10031;51.180;17.168;2022-12-29T06:57:42;6.27;;;4.30;;
10399;SDS011;10031;51.180;17.168;2022-12-29T07:00:09;8.27;;;4.80;;
10399;SDS011;10031;51.180;17.168;2022-12-29T07:02:35;8.37;;;4.70;;
10399;SDS011;10031;51.180;17.168;2022-12-29T07:05:01;6.10;;;4.50;;
10399;SDS011;10031;51.180;17.168;2022-12-29T07:07:27;7.10;;;4.53;;
10399;SDS011;10031;51.180;17.168;2022-12-29T07:09:53;6.57;;;4.67;;
10399;SDS011;10031;51.180;17.168;2022-12-29T07:12:21;8.67;;;4.57;;
10399;SDS011;10031;51.180;17.168;2022-12-29T07:14:48;5.57;;;4.20;;
10399;SDS011;10031;51.180;17.168;2022-12-29T07:17:14;6.13;;;4.53;;
10399;SDS011;10031;51.180;17.168;2022-12-29T07:19:40;7.37;;;4.70;;
10399;SDS011;10031;51.180;17.168;2022-12-29T07:22:06;8.57;;;5.00;;
10399;SDS011;10031;51.180;17.168;2022-12-29T07:24:32;7.60;;;5.07;;
10399;SDS011;10031;51.180;17.168;2022-12-29T07:26:58;6.87;;;4.63;;
10399;SDS011;10031;51.180;17.168;2022-12-29T07:29:24;8.53;;;5.20;;
10399;SDS011;10031;51.180;17.168;2022-12-29T07:31:50;7.03;;;4.67;;
10399;SDS011;10031;51.180;17.168;2022-12-29T07:34:16;7.80;;;4.70;;
10399;SDS011;10031;51.180;17.168;2022-12-29T07:36:42;7.50;;;4.57;;
10399;SDS011;10031;51.180;17.168;2022-12-29T07:39:08;7.93;;;4.60;;
10399;SDS011;10031;51.180;17.168;2022-12-29T07:41:34;8.47;;;4.23;;
10399;SDS011;10031;51.180;17.168;2022-12-29T07:44:01;11.97;;;5.00;;
10399;SDS011;10031;51.180;17.168;2022-12-29T07:46:27;6.70;;;4.30;;
10399;SDS011;10031;51.180;17.168;2022-12-29T07:48:53;7.60;;;4.37;;
10399;SDS011;10031;51.180;17.168;2022-12-29T07:51:21;10.00;;;4.63;;
10399;SDS011;10031;51.180;17.168;2022-12-29T07:53:47;6.37;;;4.17;;
10399;SDS011;10031;51.180;17.168;2022-12-29T07:56:17;8.30;;;4.40;;
10399;SDS011;10031;51.180;17.168;2022-12-29T07:58:43;8.03;;;4.93;;
10399;SDS011;10031;51.180;17.168;2022-12-29T08:01:09;6.73;;;4.53;;
10399;SDS011;10031;51.180;17.168;2022-12-29T08:03:35;7.00;;;5.00;;
10399;SDS011;10031;51.180;17.168;2022-12-29T08:06:01;7.53;;;4.97;;
10399;SDS011;10031;51.180;17.168;2022-12-29T08:08:27;7.50;;;4.83;;
10399;SDS011;10031;51.180;17.168;2022-12-29T08:10:54;7.67;;;4.70;;
10399;SDS011;10031;51.180;17.168;2022-12-29T08:13:21;7.47;;;5.10;;
10399;SDS011;10031;51.180;17.168;2022-12-29T08:15:48;10.63;;;5.07;;
10399;SDS011;10031;51.180;17.168;2022-12-29T08:18:14;10.37;;;5.00;;
10399;SDS011;10031;51.180;17.168;2022-12-29T08:20:40;7.37;;;4.97;;
10399;SDS011;10031;51.180;17.168;2022-12-29T08:23:07;8.00;;;5.60;;
10399;SDS011;10031;51.180;17.168;2022-12-29T08:25:33;8.40;;;5.20;;
10399;SDS011;10031;51.180;17.168;2022-12-29T08:27:59;12.53;;;5.03;;
10399;SDS011;10031;51.180;17.168;2022-12-29T08:30:25;8.00;;;5.00;;
10399;SDS011;10031;51.180;17.168;2022-12-29T08:32:51;9.90;;;5.00;;
10399;SDS011;10031;51.180;17.168;2022-12-29T08:35:17;8.27;;;5.07;;
10399;SDS011;10031;51.180;17.168;2022-12-29T08:37:43;6.13;;;4.53;;
10399;SDS011;10031;51.180;17.168;2022-12-29T08:40:12;7.80;;;5.10;;
10399;SDS011;10031;51.180;17.168;2022-12-29T08:42:38;7.70;;;5.17;;
10399;SDS011;10031;51.180;17.168;2022-12-29T08:45:05;9.67;;;5.10;;
10399;SDS011;10031;51.180;17.168;2022-12-29T08:47:31;9.80;;;5.10;;
10399;SDS011;10031;51.180;17.168;2022-12-29T08:49:58;8.57;;;4.97;;
10399;SDS011;10031;51.180;17.168;2022-12-29T08:52:23;8.40;;;5.10;;
10399;SDS011;10031;51.180;17.168;2022-12-29T08:54:50;8.77;;;6.07;;
10399;SDS011;10031;51.180;17.168;2022-12-29T08:57:16;9.50;;;4.70;;
10399;SDS011;10031;51.180;17.168;2022-12-29T08:59:42;8.70;;;5.43;;
10399;SDS011;10031;51.180;17.168;2022-12-29T09:02:11;8.87;;;6.43;;
10399;SDS011;10031;51.180;17.168;2022-12-29T09:04:38;8.40;;;5.17;;
10399;SDS011;10031;51.180;17.168;2022-12-29T09:07:04;10.57;;;5.70;;
10399;SDS011;10031;51.180;17.168;2022-12-29T09:09:31;8.53;;;5.97;;
10399;SDS011;10031;51.180;17.168;2022-12-29T09:12:00;7.80;;;5.07;;
10399;SDS011;10031;51.180;17.168;2022-12-29T09:14:26;9.97;;;5.83;;
10399;SDS011;10031;51.180;17.168;2022-12-29T09:16:52;7.57;;;5.10;;
10399;SDS011;10031;51.180;17.168;2022-12-29T09:19:37;7.90;;;4.80;;
10399;SDS011;10031;51.180;17.168;2022-12-29T09:22:03;7.13;;;5.03;;
10399;SDS011;10031;51.180;17.168;2022-12-29T09:24:30;10.63;;;4.90;;
10399;SDS011;10031;51.180;17.168;2022-12-29T09:26:56;8.13;;;5.43;;
10399;SDS011;10031;51.180;17.168;2022-12-29T09:29:22;7.37;;;5.40;;
10399;SDS011;10031;51.180;17.168;2022-12-29T09:31:49;7.73;;;5.70;;
10399;SDS011;10031;51.180;17.168;2022-12-29T09:34:15;7.27;;;4.63;;
10399;SDS011;10031;51.180;17.168;2022-12-29T09:36:41;8.23;;;6.47;;
10399;SDS011;10031;51.180;17.168;2022-12-29T09:39:08;8.93;;;5.67;;
10399;SDS011;10031;51.180;17.168;2022-12-29T09:47:21;9.40;;;6.33;;
10399;SDS011;10031;51.180;17.168;2022-12-29T09:50:15;10.07;;;6.67;;
10399;SDS011;10031;51.180;17.168;2022-12-29T09:53:03;14.17;;;7.33;;
10399;SDS011;10031;51.180;17.168;2022-12-29T09:55:38;7.97;;;5.20;;
10399;SDS011;10031;51.180;17.168;2022-12-29T09:58:20;11.93;;;7.63;;
10399;SDS011;10031;51.180;17.168;2022-12-29T10:04:01;11.10;;;7.13;;
10399;SDS011;10031;51.180;17.168;2022-12-29T10:14:37;9.70;;;5.77;;
10399;SDS011;10031;51.180;17.168;2022-12-29T10:17:39;10.67;;;5.80;;
10399;SDS011;10031;51.180;17.168;2022-12-29T10:25:38;13.73;;;7.97;;
10399;SDS011;10031;51.180;17.168;2022-12-29T10:28:10;18.37;;;9.47;;
10399;SDS011;10031;51.180;17.168;2022-12-29T10:31:02;17.77;;;10.57;;
10399;SDS011;10031;51.180;17.168;2022-12-29T10:33:36;8.27;;;4.80;;
10399;SDS011;10031;51.180;17.168;2022-12-29T10:36:10;13.73;;;8.00;;
10399;SDS011;10031;51.180;17.168;2022-12-29T10:38:48;8.77;;;5.43;;
10399;SDS011;10031;51.180;17.168;2022-12-29T10:44:07;10.60;;;6.47;;
10399;SDS011;10031;51.180;17.168;2022-12-29T10:46:38;9.77;;;6.23;;
10399;SDS011;10031;51.180;17.168;2022-12-29T10:49:06;11.30;;;5.47;;
10399;SDS011;10031;51.180;17.168;2022-12-29T10:51:39;6.77;;;4.70;;
10399;SDS011;10031;51.180;17.168;2022-12-29T10:54:15;7.60;;;3.70;;
10399;SDS011;10031;51.180;17.168;2022-12-29T10:56:47;7.77;;;4.63;;
10399;SDS011;10031;51.180;17.168;2022-12-29T10:59:35;11.77;;;4.83;;
10399;SDS011;10031;51.180;17.168;2022-12-29T11:07:28;12.57;;;5.50;;
10399;SDS011;10031;51.180;17.168;2022-12-29T11:10:18;8.87;;;4.50;;
10399;SDS011;10031;51.180;17.168;2022-12-29T11:15:38;6.47;;;3.93;;
10399;SDS011;10031;51.180;17.168;2022-12-29T11:20:45;7.17;;;3.57;;
10399;SDS011;10031;51.180;17.168;2022-12-29T11:31:52;7.87;;;3.50;;
10399;SDS011;10031;51.180;17.168;2022-12-29T11:36:46;6.43;;;4.23;;
10399;SDS011;10031;51.180;17.168;2022-12-29T11:42:40;7.57;;;4.60;;
10399;SDS011;10031;51.180;17.168;2022-12-29T11:45:18;6.27;;;4.43;;
10399;SDS011;10031;51.180;17.168;2022-12-29T11:53:32;5.77;;;4.07;;
10399;SDS011;10031;51.180;17.168;2022-12-29T11:56:06;7.47;;;4.27;;
10399;SDS011;10031;51.180;17.168;2022-12-29T11:58:35;7.87;;;4.67;;
10399;SDS011;10031;51.180;17.168;2022-12-29T12:01:06;8.33;;;3.43;;
10399;SDS011;10031;51.180;17.168;2022-12-29T12:03:45;7.90;;;3.73;;
10399;SDS011;10031;51.180;17.168;2022-12-29T12:10:43;8.57;;;4.73;;
10399;SDS011;10031;51.180;17.168;2022-12-29T12:13:46;9.47;;;5.23;;
10399;SDS011;10031;51.180;17.168;2022-12-29T12:16:57;8.77;;;4.97;;
10399;SDS011;10031;51.180;17.168;2022-12-29T12:22:02;11.70;;;4.90;;
10399;SDS011;10031;51.180;17.168;2022-12-29T12:27:21;10.53;;;5.30;;
10399;SDS011;10031;51.180;17.168;2022-12-29T12:30:11;8.20;;;5.20;;
10399;SDS011;10031;51.180;17.168;2022-12-29T12:35:15;9.67;;;4.87;;
10399;SDS011;10031;51.180;17.168;2022-12-29T12:47:53;15.47;;;8.47;;
10399;SDS011;10031;51.180;17.168;2022-12-29T12:55:58;11.33;;;5.93;;
10399;SDS011;10031;51.180;17.168;2022-12-29T12:58:26;8.17;;;5.40;;
10399;SDS011;10031;51.180;17.168;2022-12-29T13:06:41;9.87;;;5.00;;
10399;SDS011;10031;51.180;17.168;2022-12-29T13:14:34;11.37;;;5.63;;
10399;SDS011;10031;51.180;17.168;2022-12-29T13:17:15;10.67;;;5.83;;
10399;SDS011;10031;51.180;17.168;2022-12-29T13:20:06;12.90;;;5.70;;
10399;SDS011;10031;51.180;17.168;2022-12-29T13:22:38;12.70;;;6.87;;
10399;SDS011;10031;51.180;17.168;2022-12-29T13:25:30;10.43;;;6.90;;
10399;SDS011;10031;51.180;17.168;2022-12-29T13:28:00;10.03;;;6.20;;
10399;SDS011;10031;51.180;17.168;2022-12-29T13:30:32;12.63;;;6.67;;
10399;SDS011;10031;51.180;17.168;2022-12-29T13:40:45;10.23;;;6.43;;
10399;SDS011;10031;51.180;17.168;2022-12-29T13:43:13;12.53;;;7.07;;
10399;SDS011;10031;51.180;17.168;2022-12-29T13:45:42;12.27;;;6.77;;
10399;SDS011;10031;51.180;17.168;2022-12-29T13:51:05;14.30;;;7.13;;
10399;SDS011;10031;51.180;17.168;2022-12-29T13:56:07;13.60;;;6.93;;
10399;SDS011;10031;51.180;17.168;2022-12-29T13:58:53;11.93;;;6.70;;
10399;SDS011;10031;51.180;17.168;2022-12-29T14:04:26;11.50;;;5.60;;
10399;SDS011;10031;51.180;17.168;2022-12-29T14:07:06;8.03;;;5.10;;
10399;SDS011;10031;51.180;17.168;2022-12-29T14:09:43;12.37;;;5.83;;
10399;SDS011;10031;51.180;17.168;2022-12-29T14:15:14;21.00;;;9.20;;
10399;SDS011;10031;51.180;17.168;2022-12-29T14:17:43;13.13;;;6.70;;
10399;SDS011;10031;51.180;17.168;2022-12-29T14:20:17;12.23;;;6.33;;
10399;SDS011;10031;51.180;17.168;2022-12-29T14:23:00;10.77;;;6.50;;
10399;SDS011;10031;51.180;17.168;2022-12-29T14:28:16;11.33;;;7.23;;
10399;SDS011;10031;51.180;17.168;2022-12-29T14:30:49;10.27;;;6.70;;
10399;SDS011;10031;51.180;17.168;2022-12-29T14:33:16;12.17;;;7.63;;
10399;SDS011;10031;51.180;17.168;2022-12-29T14:35:43;12.97;;;7.43;;
10399;SDS011;10031;51.180;17.168;2022-12-29T14:38:27;13.93;;;8.13;;
10399;SDS011;10031;51.180;17.168;2022-12-29T14:41:15;21.30;;;11.10;;
10399;SDS011;10031;51.180;17.168;2022-12-29T14:43:41;15.87;;;9.83;;
10399;SDS011;10031;51.180;17.168;2022-12-29T14:46:17;17.83;;;10.27;;
10399;SDS011;10031;51.180;17.168;2022-12-29T14:48:43;21.50;;;12.10;;
10399;SDS011;10031;51.180;17.168;2022-12-29T14:56:58;16.13;;;8.83;;
10399;SDS011;10031;51.180;17.168;2022-12-29T14:59:29;12.70;;;6.87;;
10399;SDS011;10031;51.180;17.168;2022-12-29T15:01:58;8.70;;;6.30;;
10399;SDS011;10031;51.180;17.168;2022-12-29T15:04:30;10.90;;;6.80;;
10399;SDS011;10031;51.180;17.168;2022-12-29T15:06:59;12.03;;;8.03;;
10399;SDS011;10031;51.180;17.168;2022-12-29T15:14:59;13.33;;;8.50;;
10399;SDS011;10031;51.180;17.168;2022-12-29T15:19:53;13.87;;;8.27;;
10399;SDS011;10031;51.180;17.168;2022-12-29T15:22:19;16.60;;;9.13;;
10399;SDS011;10031;51.180;17.168;2022-12-29T15:24:45;13.37;;;8.77;;
10399;SDS011;10031;51.180;17.168;2022-12-29T15:27:15;13.87;;;7.93;;
10399;SDS011;10031;51.180;17.168;2022-12-29T15:29:44;14.90;;;8.87;;
10399;SDS011;10031;51.180;17.168;2022-12-29T15:34:40;16.63;;;10.33;;
10399;SDS011;10031;51.180;17.168;2022-12-29T15:37:07;14.70;;;9.23;;
10399;SDS011;10031;51.180;17.168;2022-12-29T15:39:34;16.57;;;10.53;;
10399;SDS011;10031;51.180;17.168;2022-12-29T15:42:22;19.67;;;10.83;;
10399;SDS011;10031;51.180;17.168;2022-12-29T15:44:48;17.43;;;10.73;;
10399;SDS011;10031;51.180;17.168;2022-12-29T15:47:18;21.97;;;10.60;;
10399;SDS011;10031;51.180;17.168;2022-12-29T15:49:49;19.97;;;11.27;;
10399;SDS011;10031;51.180;17.168;2022-12-29T15:52:19;27.50;;;14.40;;
10399;SDS011;10031;51.180;17.168;2022-12-29T15:54:50;32.47;;;16.83;;
10399;SDS011;10031;51.180;17.168;2022-12-29T15:57:23;28.37;;;13.23;;
10399;SDS011;10031;51.180;17.168;2022-12-29T15:59:55;29.60;;;15.53;;
10399;SDS011;10031;51.180;17.168;2022-12-29T16:02:22;25.00;;;13.63;;
10399;SDS011;10031;51.180;17.168;2022-12-29T16:04:51;30.37;;;14.57;;
10399;SDS011;10031;51.180;17.168;2022-12-29T16:07:29;25.77;;;13.33;;
10399;SDS011;10031;51.180;17.168;2022-12-29T16:09:58;20.77;;;12.33;;
10399;SDS011;10031;51.180;17.168;2022-12-29T16:12:32;20.17;;;11.70;;
10399;SDS011;10031;51.180;17.168;2022-12-29T16:15:01;21.27;;;11.97;;
10399;SDS011;10031;51.180;17.168;2022-12-29T16:17:48;24.77;;;12.50;;
10399;SDS011;10031;51.180;17.168;2022-12-29T16:20:20;20.57;;;10.30;;
10399;SDS011;10031;51.180;17.168;2022-12-29T16:22:48;18.43;;;10.93;;
10399;SDS011;10031;51.180;17.168;2022-12-29T16:25:22;20.83;;;11.50;;
10399;SDS011;10031;51.180;17.168;2022-12-29T16:28:02;17.50;;;10.57;;
10399;SDS011;10031;51.180;17.168;2022-12-29T16:30:47;14.50;;;8.93;;
10399;SDS011;10031;51.180;17.168;2022-12-29T16:33:38;18.57;;;10.03;;
10399;SDS011;10031;51.180;17.168;2022-12-29T16:41:50;19.40;;;13.10;;
10399;SDS011;10031;51.180;17.168;2022-12-29T16:44:20;20.57;;;10.73;;
10399;SDS011;10031;51.180;17.168;2022-12-29T16:49:29;17.90;;;12.20;;
10399;SDS011;10031;51.180;17.168;2022-12-29T16:51:56;18.60;;;11.60;;
10399;SDS011;10031;51.180;17.168;2022-12-29T16:54:33;21.10;;;12.53;;
10399;SDS011;10031;51.180;17.168;2022-12-29T16:57:02;17.43;;;11.10;;
10399;SDS011;10031;51.180;17.168;2022-12-29T16:59:32;17.87;;;10.27;;
10399;SDS011;10031;51.180;17.168;2022-12-29T17:02:05;20.20;;;11.63;;
10399;SDS011;10031;51.180;17.168;2022-12-29T17:04:38;19.73;;;11.57;;
10399;SDS011;10031;51.180;17.168;2022-12-29T17:07:13;21.17;;;11.93;;
10399;SDS011;10031;51.180;17.168;2022-12-29T17:09:45;17.60;;;10.67;;
10399;SDS011;10031;51.180;17.168;2022-12-29T17:12:15;19.13;;;11.67;;
10399;SDS011;10031;51.180;17.168;2022-12-29T17:17:21;18.80;;;11.57;;
10399;SDS011;10031;51.180;17.168;2022-12-29T17:19:52;18.67;;;11.07;;
10399;SDS011;10031;51.180;17.168;2022-12-29T17:22:25;20.83;;;11.50;;
10399;SDS011;10031;51.180;17.168;2022-12-29T17:24:52;18.73;;;10.87;;
10399;SDS011;10031;51.180;17.168;2022-12-29T17:27:29;21.17;;;11.67;;
10399;SDS011;10031;51.180;17.168;2022-12-29T17:30:05;18.40;;;10.73;;
10399;SDS011;10031;51.180;17.168;2022-12-29T17:32:40;16.83;;;10.03;;
10399;SDS011;10031;51.180;17.168;2022-12-29T17:35:17;17.23;;;10.77;;
10399;SDS011;10031;51.180;17.168;2022-12-29T17:37:44;20.00;;;10.63;;
10399;SDS011;10031;51.180;17.168;2022-12-29T17:40:15;17.40;;;11.03;;
10399;SDS011;10031;51.180;17.168;2022-12-29T17:42:41;19.30;;;11.33;;
10399;SDS011;10031;51.180;17.168;2022-12-29T17:45:19;19.13;;;12.10;;
10399;SDS011;10031;51.180;17.168;2022-12-29T17:47:48;20.30;;;11.37;;
10399;SDS011;10031;51.180;17.168;2022-12-29T17:50:17;20.50;;;11.87;;
10399;SDS011;10031;51.180;17.168;2022-12-29T17:52:54;16.30;;;11.00;;
10399;SDS011;10031;51.180;17.168;2022-12-29T17:55:24;18.83;;;11.53;;
10399;SDS011;10031;51.180;17.168;2022-12-29T17:57:51;17.80;;;11.30;;
10399;SDS011;10031;51.180;17.168;2022-12-29T18:00:22;18.33;;;11.60;;